sensor_id;sensor_type;location;lat;lon;timestamp;pressure;altitude;pressure_sealevel;temperature;humidity
67740;BME280;54536;50.090;14.420;2023-01-28T00:01:13;100043.03;;;5.29;57.75
67740;BME280;54536;50.090;14.420;2023-01-28T00:03:40;100037.66;;;5.32;57.67
67740;BME280;54536;50.090;14.420;2023-01-28T00:06:12;100032.72;;;5.12;58.18
67740;BME280;54536;50.090;14.420;2023-01-28T00:08:39;100032.47;;;5.16;57.85
67740;BME280;54536;50.090;14.420;2023-01-28T00:11:07;100040.53;;;5.28;57.87
67740;BME280;54536;50.090;14.420;2023-01-28T00:13:35;100038.28;;;5.22;57.99
67740;BME280;54536;50.090;14.420;2023-01-28T00:16:03;100043.03;;;5.29;57.98
67740;BME280;54536;50.090;14.420;2023-01-28T00:18:30;100035.59;;;5.23;57.30
67740;BME280;54536;50.090;14.420;2023-01-28T00:20:59;100038.16;;;5.39;57.02
67740;BME280;54536;50.090;14.420;2023-01-28T00:23:30;100033.16;;;5.20;57.32
67740;BME280;54536;50.090;14.420;2023-01-28T00:25:58;100034.16;;;5.33;58.92
67740;BME280;54536;50.090;14.420;2023-01-28T00:28:24;100034.03;;;5.35;57.52
67740;BME280;54536;50.090;14.420;2023-01-28T00:30:51;100035.97;;;5.31;57.61
67740;BME280;54536;50.090;14.420;2023-01-28T00:33:17;100033.56;;;5.28;57.12
67740;BME280;54536;50.090;14.420;2023-01-28T00:35:43;100037.00;;;5.13;57.28
67740;BME280;54536;50.090;14.420;2023-01-28T00:38:10;100042.31;;;5.27;57.31
67740;BME280;54536;50.090;14.420;2023-01-28T00:40:36;100035.03;;;5.32;57.72
67740;BME280;54536;50.090;14.420;2023-01-28T00:43:03;100034.03;;;5.35;58.47
67740;BME280;54536;50.090;14.420;2023-01-28T00:45:29;100040.38;;;5.31;57.48
67740;BME280;54536;50.090;14.420;2023-01-28T00:48:01;100038.41;;;5.34;58.09
67740;BME280;54536;50.090;14.420;2023-01-28T00:50:28;100047.00;;;5.36;57.18
67740;BME280;54536;50.090;14.420;2023-01-28T00:52:54;100038.00;;;5.26;57.12
67740;BME280;54536;50.090;14.420;2023-01-28T00:55:20;100046.13;;;5.36;57.06
67740;BME280;54536;50.090;14.420;2023-01-28T00:57:46;100042.63;;;5.37;57.06
67740;BME280;54536;50.090;14.420;2023-01-28T01:00:14;100042.88;;;5.32;58.29
67740;BME280;54536;50.090;14.420;2023-01-28T01:02:40;100035.16;;;5.31;57.27
67740;BME280;54536;50.090;14.420;2023-01-28T01:05:07;100034.00;;;5.21;57.67
67740;BME280;54536;50.090;14.420;2023-01-28T01:07:33;100042.47;;;5.24;57.40
67740;BME280;54536;50.090;14.420;2023-01-28T01:10:12;100043.47;;;5.22;58.39
67740;BME280;54536;50.090;14.420;2023-01-28T01:12:39;100039.09;;;5.22;58.11
67740;BME280;54536;50.090;14.420;2023-01-28T01:15:08;100029.63;;;5.21;57.48
67740;BME280;54536;50.090;14.420;2023-01-28T01:17:43;100041.31;;;5.14;57.97
67740;BME280;54536;50.090;14.420;2023-01-28T01:20:21;100043.81;;;5.15;57.75
67740;BME280;54536;50.090;14.420;2023-01-28T01:22:47;100052.25;;;5.21;57.77
67740;BME280;54536;50.090;14.420;2023-01-28T01:25:20;100058.97;;;5.25;57.55
67740;BME280;54536;50.090;14.420;2023-01-28T01:27:48;100056.44;;;5.23;57.94
67740;BME280;54536;50.090;14.420;2023-01-28T01:30:15;100049.47;;;5.24;57.68
67740;BME280;54536;50.090;14.420;2023-01-28T01:32:42;100057.78;;;5.14;59.06
67740;BME280;54536;50.090;14.420;2023-01-28T01:35:09;100068.78;;;5.20;58.02
67740;BME280;54536;50.090;14.420;2023-01-28T01:37:42;100070.22;;;5.09;59.01
67740;BME280;54536;50.090;14.420;2023-01-28T01:40:12;100072.75;;;5.11;58.67
67740;BME280;54536;50.090;14.420;2023-01-28T01:42:38;100061.72;;;5.22;58.27
67740;BME280;54536;50.090;14.420;2023-01-28T01:45:12;100069.50;;;5.07;57.95
67740;BME280;54536;50.090;14.420;2023-01-28T01:48:05;100070.00;;;5.14;58.27
67740;BME280;54536;50.090;14.420;2023-01-28T01:51:00;100069.06;;;5.15;58.24
67740;BME280;54536;50.090;14.420;2023-01-28T01:53:30;100063.44;;;5.07;58.62
67740;BME280;54536;50.090;14.420;2023-01-28T01:56:02;100073.34;;;5.16;57.93
67740;BME280;54536;50.090;14.420;2023-01-28T01:58:36;100064.84;;;5.28;57.80
67740;BME280;54536;50.090;14.420;2023-01-28T02:01:05;100068.94;;;5.32;57.46
67740;BME280;54536;50.090;14.420;2023-01-28T02:03:52;100065.94;;;5.24;57.60
67740;BME280;54536;50.090;14.420;2023-01-28T02:06:22;100073.94;;;5.21;58.31
67740;BME280;54536;50.090;14.420;2023-01-28T02:08:55;100060.22;;;5.18;57.53
67740;BME280;54536;50.090;14.420;2023-01-28T02:11:31;100072.44;;;5.17;57.36
67740;BME280;54536;50.090;14.420;2023-01-28T02:14:02;100074.78;;;5.22;57.58
67740;BME280;54536;50.090;14.420;2023-01-28T02:16:32;100064.28;;;5.23;57.69
67740;BME280;54536;50.090;14.420;2023-01-28T02:18:59;100069.28;;;5.26;57.37
67740;BME280;54536;50.090;14.420;2023-01-28T02:30:31;100077.59;;;5.33;57.52
67740;BME280;54536;50.090;14.420;2023-01-28T02:33:07;100073.09;;;5.36;57.99
67740;BME280;54536;50.090;14.420;2023-01-28T02:35:52;100083.44;;;5.22;57.00
67740;BME280;54536;50.090;14.420;2023-01-28T02:38:46;100076.03;;;5.14;57.91
67740;BME280;54536;50.090;14.420;2023-01-28T02:41:24;100077.47;;;5.20;57.52
67740;BME280;54536;50.090;14.420;2023-01-28T02:43:53;100070.88;;;5.29;57.81
67740;BME280;54536;50.090;14.420;2023-01-28T02:49:25;100084.75;;;5.29;57.52
67740;BME280;54536;50.090;14.420;2023-01-28T02:57:24;100079.13;;;5.37;57.87
67740;BME280;54536;50.090;14.420;2023-01-28T03:05:31;100079.97;;;5.37;57.12
67740;BME280;54536;50.090;14.420;2023-01-28T03:08:03;100081.81;;;5.35;57.71
67740;BME280;54536;50.090;14.420;2023-01-28T03:10:52;100077.25;;;5.39;57.11
67740;BME280;54536;50.090;14.420;2023-01-28T03:13:42;100076.53;;;5.37;58.24
67740;BME280;54536;50.090;14.420;2023-01-28T03:16:32;100076.44;;;5.38;56.91
67740;BME280;54536;50.090;14.420;2023-01-28T03:19:20;100076.19;;;5.43;56.84
67740;BME280;54536;50.090;14.420;2023-01-28T03:22:07;100078.13;;;5.39;57.26
67740;BME280;54536;50.090;14.420;2023-01-28T03:24:53;100074.59;;;5.40;57.17
67740;BME280;54536;50.090;14.420;2023-01-28T03:27:53;100077.25;;;5.39;57.00
67740;BME280;54536;50.090;14.420;2023-01-28T03:30:49;100075.25;;;5.44;57.54
67740;BME280;54536;50.090;14.420;2023-01-28T03:33:36;100075.59;;;5.38;57.24
67740;BME280;54536;50.090;14.420;2023-01-28T03:36:22;100079.81;;;5.40;57.72
67740;BME280;54536;50.090;14.420;2023-01-28T03:39:10;100083.13;;;5.43;57.42
67740;BME280;54536;50.090;14.420;2023-01-28T03:41:37;100085.00;;;5.40;56.94
67740;BME280;54536;50.090;14.420;2023-01-28T03:44:03;100095.84;;;5.33;57.20
67740;BME280;54536;50.090;14.420;2023-01-28T03:46:50;100084.41;;;5.35;57.60
67740;BME280;54536;50.090;14.420;2023-01-28T03:49:18;100090.16;;;5.26;57.44
67740;BME280;54536;50.090;14.420;2023-01-28T03:51:44;100092.91;;;5.39;57.50
67740;BME280;54536;50.090;14.420;2023-01-28T03:54:11;100088.19;;;5.46;57.26
67740;BME280;54536;50.090;14.420;2023-01-28T03:56:38;100089.88;;;5.47;57.41
67740;BME280;54536;50.090;14.420;2023-01-28T03:59:06;100090.56;;;5.50;57.01
67740;BME280;54536;50.090;14.420;2023-01-28T04:01:32;100092.31;;;5.50;56.64
67740;BME280;54536;50.090;14.420;2023-01-28T04:03:59;100082.41;;;5.40;58.33
67740;BME280;54536;50.090;14.420;2023-01-28T04:06:24;100094.16;;;5.48;57.54
67740;BME280;54536;50.090;14.420;2023-01-28T04:08:51;100093.91;;;5.52;57.05
67740;BME280;54536;50.090;14.420;2023-01-28T04:11:25;100098.38;;;5.50;56.78
67740;BME280;54536;50.090;14.420;2023-01-28T04:13:51;100097.78;;;5.45;57.68
67740;BME280;54536;50.090;14.420;2023-01-28T04:16:19;100095.34;;;5.42;57.04
67740;BME280;54536;50.090;14.420;2023-01-28T04:18:45;100090.97;;;5.43;57.17
67740;BME280;54536;50.090;14.420;2023-01-28T04:21:17;100091.91;;;5.42;57.85
67740;BME280;54536;50.090;14.420;2023-01-28T04:23:45;100095.78;;;5.34;57.90
67740;BME280;54536;50.090;14.420;2023-01-28T04:26:11;100094.06;;;5.49;58.26
67740;BME280;54536;50.090;14.420;2023-01-28T04:28:37;100096.94;;;5.45;56.97
67740;BME280;54536;50.090;14.420;2023-01-28T04:31:04;100093.16;;;5.50;58.38
67740;BME280;54536;50.090;14.420;2023-01-28T04:33:38;100099.72;;;5.42;57.77
67740;BME280;54536;50.090;14.420;2023-01-28T04:36:05;100108.56;;;5.39;57.24
67740;BME280;54536;50.090;14.420;2023-01-28T04:38:31;100106.53;;;5.44;57.91
67740;BME280;54536;50.090;14.420;2023-01-28T04:40:59;100100.06;;;5.51;57.58
67740;BME280;54536;50.090;14.420;2023-01-28T04:43:26;100096.94;;;5.45;57.99
67740;BME280;54536;50.090;14.420;2023-01-28T04:45:52;100103.59;;;5.34;57.16
67740;BME280;54536;50.090;14.420;2023-01-28T04:48:18;100112.44;;;5.48;57.29
67740;BME280;54536;50.090;14.420;2023-01-28T04:50:44;100108.22;;;5.45;57.59
67740;BME280;54536;50.090;14.420;2023-01-28T04:53:11;100104.34;;;5.52;57.46
67740;BME280;54536;50.090;14.420;2023-01-28T04:55:38;100110.81;;;5.45;56.87
67740;BME280;54536;50.090;14.420;2023-01-28T04:58:04;100101.00;;;5.50;57.17
67740;BME280;54536;50.090;14.420;2023-01-28T05:00:30;100103.16;;;5.42;58.51
67740;BME280;54536;50.090;14.420;2023-01-28T05:02:57;100116.03;;;5.45;57.69
67740;BME280;54536;50.090;14.420;2023-01-28T05:05:23;100114.19;;;5.47;57.83
67740;BME280;54536;50.090;14.420;2023-01-28T05:07:54;100119.50;;;5.46;57.00
67740;BME280;54536;50.090;14.420;2023-01-28T05:10:22;100120.69;;;5.40;57.37
67740;BME280;54536;50.090;14.420;2023-01-28T05:12:48;100118.47;;;5.48;56.97
67740;BME280;54536;50.090;14.420;2023-01-28T05:15:16;100113.03;;;5.53;58.19
67740;BME280;54536;50.090;14.420;2023-01-28T05:17:43;100119.50;;;5.46;58.18
67740;BME280;54536;50.090;14.420;2023-01-28T05:20:12;100119.41;;;5.47;57.69
67740;BME280;54536;50.090;14.420;2023-01-28T05:22:39;100117.88;;;5.59;57.75
67740;BME280;54536;50.090;14.420;2023-01-28T05:25:06;100115.47;;;5.56;57.16
67740;BME280;54536;50.090;14.420;2023-01-28T05:27:33;100120.03;;;5.36;56.90
67740;BME280;54536;50.090;14.420;2023-01-28T05:29:59;100122.38;;;5.41;58.49
67740;BME280;54536;50.090;14.420;2023-01-28T05:32:25;100125.75;;;5.43;56.91
67740;BME280;54536;50.090;14.420;2023-01-28T05:34:51;100127.13;;;5.49;57.19
67740;BME280;54536;50.090;14.420;2023-01-28T05:37:17;100124.63;;;5.47;57.83
67740;BME280;54536;50.090;14.420;2023-01-28T05:39:44;100124.38;;;5.52;57.74
67740;BME280;54536;50.090;14.420;2023-01-28T05:42:10;100121.25;;;5.45;57.37
67740;BME280;54536;50.090;14.420;2023-01-28T05:44:36;100137.06;;;5.26;58.12
67740;BME280;54536;50.090;14.420;2023-01-28T05:47:03;100135.56;;;5.38;57.93
67740;BME280;54536;50.090;14.420;2023-01-28T05:49:29;100136.34;;;5.40;58.39
67740;BME280;54536;50.090;14.420;2023-01-28T05:51:55;100128.41;;;5.42;57.75
67740;BME280;54536;50.090;14.420;2023-01-28T05:54:21;100130.09;;;5.43;58.32
67740;BME280;54536;50.090;14.420;2023-01-28T05:56:47;100130.69;;;5.48;58.51
67740;BME280;54536;50.090;14.420;2023-01-28T05:59:14;100131.19;;;5.38;57.52
67740;BME280;54536;50.090;14.420;2023-01-28T06:01:40;100134.47;;;5.42;57.84
67740;BME280;54536;50.090;14.420;2023-01-28T06:04:06;100143.81;;;5.46;58.43
67740;BME280;54536;50.090;14.420;2023-01-28T06:06:33;100136.00;;;5.30;57.48
67740;BME280;54536;50.090;14.420;2023-01-28T06:09:05;100136.84;;;5.31;57.71
67740;BME280;54536;50.090;14.420;2023-01-28T06:11:32;100144.22;;;5.38;57.46
67740;BME280;54536;50.090;14.420;2023-01-28T06:13:58;100141.44;;;5.26;57.91
67740;BME280;54536;50.090;14.420;2023-01-28T06:16:25;100150.22;;;5.40;58.52
67740;BME280;54536;50.090;14.420;2023-01-28T06:18:51;100153.22;;;5.49;57.54
67740;BME280;54536;50.090;14.420;2023-01-28T06:21:17;100148.00;;;5.49;57.47
67740;BME280;54536;50.090;14.420;2023-01-28T06:23:43;100154.81;;;5.51;57.20
67740;BME280;54536;50.090;14.420;2023-01-28T06:26:09;100160.66;;;5.56;57.21
67740;BME280;54536;50.090;14.420;2023-01-28T06:28:35;100163.91;;;5.44;57.08
67740;BME280;54536;50.090;14.420;2023-01-28T06:31:02;100157.88;;;5.44;57.30
67740;BME280;54536;50.090;14.420;2023-01-28T06:33:28;100166.97;;;5.36;56.83
67740;BME280;54536;50.090;14.420;2023-01-28T06:35:54;100172.09;;;5.38;57.33
67740;BME280;54536;50.090;14.420;2023-01-28T06:38:20;100169.31;;;5.41;57.37
67740;BME280;54536;50.090;14.420;2023-01-28T06:40:53;100177.53;;;5.49;56.57
67740;BME280;54536;50.090;14.420;2023-01-28T06:43:21;100171.66;;;5.46;57.28
67740;BME280;54536;50.090;14.420;2023-01-28T06:45:56;100169.47;;;5.54;56.29
67740;BME280;54536;50.090;14.420;2023-01-28T06:48:23;100174.34;;;5.60;56.76
67740;BME280;54536;50.090;14.420;2023-01-28T06:50:50;100179.25;;;5.50;56.23
67740;BME280;54536;50.090;14.420;2023-01-28T06:53:17;100183.19;;;5.42;56.77
67740;BME280;54536;50.090;14.420;2023-01-28T06:55:44;100183.00;;;5.45;55.99
67740;BME280;54536;50.090;14.420;2023-01-28T06:58:10;100190.78;;;5.46;56.27
67740;BME280;54536;50.090;14.420;2023-01-28T07:00:37;100191.84;;;5.58;56.92
67740;BME280;54536;50.090;14.420;2023-01-28T07:03:03;100192.69;;;5.58;56.64
67740;BME280;54536;50.090;14.420;2023-01-28T07:05:30;100190.91;;;5.59;56.45
67740;BME280;54536;50.090;14.420;2023-01-28T07:07:56;100202.28;;;5.58;56.42
67740;BME280;54536;50.090;14.420;2023-01-28T07:10:22;100198.00;;;5.57;56.55
67740;BME280;54536;50.090;14.420;2023-01-28T07:12:49;100203.44;;;5.52;56.45
67740;BME280;54536;50.090;14.420;2023-01-28T07:15:21;100210.94;;;5.58;56.08
67740;BME280;54536;50.090;14.420;2023-01-28T07:17:47;100205.91;;;5.55;56.22
67740;BME280;54536;50.090;14.420;2023-01-28T07:20:14;100206.41;;;5.62;56.21
67740;BME280;54536;50.090;14.420;2023-01-28T07:22:42;100207.75;;;5.53;55.37
67740;BME280;54536;50.090;14.420;2023-01-28T07:25:10;100210.09;;;5.58;56.31
67740;BME280;54536;50.090;14.420;2023-01-28T07:27:37;100217.38;;;5.53;55.59
67740;BME280;54536;50.090;14.420;2023-01-28T07:30:03;100215.41;;;5.40;54.88
67740;BME280;54536;50.090;14.420;2023-01-28T07:32:30;100217.03;;;5.43;55.88
67740;BME280;54536;50.090;14.420;2023-01-28T07:34:56;100219.84;;;5.38;54.39
67740;BME280;54536;50.090;14.420;2023-01-28T07:37:23;100224.06;;;5.41;54.51
67740;BME280;54536;50.090;14.420;2023-01-28T07:39:49;100229.28;;;5.41;54.40
67740;BME280;54536;50.090;14.420;2023-01-28T07:42:17;100229.13;;;5.44;54.55
67740;BME280;54536;50.090;14.420;2023-01-28T07:44:43;100226.94;;;5.36;55.10
67740;BME280;54536;50.090;14.420;2023-01-28T07:47:09;100226.41;;;5.46;54.67
67740;BME280;54536;50.090;14.420;2023-01-28T07:49:35;100226.00;;;5.37;55.06
67740;BME280;54536;50.090;14.420;2023-01-28T07:52:05;100226.19;;;5.50;55.76
67740;BME280;54536;50.090;14.420;2023-01-28T07:54:31;100224.09;;;5.57;55.09
67740;BME280;54536;50.090;14.420;2023-01-28T07:56:57;100236.13;;;5.59;55.35
67740;BME280;54536;50.090;14.420;2023-01-28T07:59:24;100233.06;;;5.51;55.70
67740;BME280;54536;50.090;14.420;2023-01-28T08:01:56;100232.06;;;5.54;55.65
67740;BME280;54536;50.090;14.420;2023-01-28T08:04:23;100232.22;;;5.35;55.04
67740;BME280;54536;50.090;14.420;2023-01-28T08:06:49;100243.28;;;5.56;54.90
67740;BME280;54536;50.090;14.420;2023-01-28T08:09:17;100238.97;;;5.55;55.43
67740;BME280;54536;50.090;14.420;2023-01-28T08:11:43;100242.41;;;5.55;54.54
67740;BME280;54536;50.090;14.420;2023-01-28T08:14:10;100251.09;;;5.56;55.28
67740;BME280;54536;50.090;14.420;2023-01-28T08:16:36;100260.59;;;5.41;54.22
67740;BME280;54536;50.090;14.420;2023-01-28T08:19:02;100257.41;;;5.52;54.28
67740;BME280;54536;50.090;14.420;2023-01-28T08:21:29;100255.38;;;5.41;54.51
67740;BME280;54536;50.090;14.420;2023-01-28T08:23:55;100263.03;;;5.44;53.96
67740;BME280;54536;50.090;14.420;2023-01-28T08:26:21;100260.59;;;5.41;54.63
67740;BME280;54536;50.090;14.420;2023-01-28T08:28:47;100265.03;;;5.39;55.87
67740;BME280;54536;50.090;14.420;2023-01-28T08:31:14;100269.66;;;5.34;55.34
67740;BME280;54536;50.090;14.420;2023-01-28T08:33:40;100262.25;;;5.42;55.90
67740;BME280;54536;50.090;14.420;2023-01-28T08:36:06;100268.00;;;5.49;56.91
67740;BME280;54536;50.090;14.420;2023-01-28T08:38:33;100263.19;;;5.41;54.22
67740;BME280;54536;50.090;14.420;2023-01-28T08:40:59;100274.44;;;5.26;54.63
67740;BME280;54536;50.090;14.420;2023-01-28T08:43:25;100271.59;;;5.30;56.72
67740;BME280;54536;50.090;14.420;2023-01-28T08:45:51;100276.66;;;5.33;54.13
67740;BME280;54536;50.090;14.420;2023-01-28T08:48:19;100278.31;;;5.34;54.60
67740;BME280;54536;50.090;14.420;2023-01-28T08:50:45;100286.31;;;5.31;54.52
67740;BME280;54536;50.090;14.420;2023-01-28T08:53:14;100289.13;;;5.44;53.86
67740;BME280;54536;50.090;14.420;2023-01-28T08:55:41;100287.59;;;5.40;55.52
67740;BME280;54536;50.090;14.420;2023-01-28T08:58:12;100291.22;;;5.37;54.24
67740;BME280;54536;50.090;14.420;2023-01-28T09:00:39;100290.06;;;5.43;53.69
67740;BME280;54536;50.090;14.420;2023-01-28T09:03:06;100284.31;;;5.36;54.54
67740;BME280;54536;50.090;14.420;2023-01-28T09:05:36;100288.75;;;5.34;54.39
67740;BME280;54536;50.090;14.420;2023-01-28T09:08:13;100288.44;;;5.40;53.79
67740;BME280;54536;50.090;14.420;2023-01-28T09:10:40;100300.53;;;5.42;53.74
67740;BME280;54536;50.090;14.420;2023-01-28T09:13:12;100295.44;;;5.23;53.97
67740;BME280;54536;50.090;14.420;2023-01-28T09:15:39;100299.19;;;5.34;54.17
67740;BME280;54536;50.090;14.420;2023-01-28T09:18:05;100304.16;;;5.39;53.17
67740;BME280;54536;50.090;14.420;2023-01-28T09:20:33;100301.44;;;5.25;52.73
67740;BME280;54536;50.090;14.420;2023-01-28T09:23:01;100303.78;;;5.29;52.99
67740;BME280;54536;50.090;14.420;2023-01-28T09:25:28;100306.34;;;5.31;52.82
67740;BME280;54536;50.090;14.420;2023-01-28T09:27:54;100308.25;;;5.27;53.87
67740;BME280;54536;50.090;14.420;2023-01-28T09:30:22;100314.22;;;5.29;52.64
67740;BME280;54536;50.090;14.420;2023-01-28T09:32:49;100318.53;;;5.30;54.25
67740;BME280;54536;50.090;14.420;2023-01-28T09:35:16;100313.84;;;5.37;53.24
67740;BME280;54536;50.090;14.420;2023-01-28T09:37:42;100316.28;;;5.40;54.04
67740;BME280;54536;50.090;14.420;2023-01-28T09:40:25;100321.19;;;5.46;53.47
67740;BME280;54536;50.090;14.420;2023-01-28T09:43:17;100310.81;;;5.45;53.72
67740;BME280;54536;50.090;14.420;2023-01-28T09:45:55;100323.09;;;5.43;54.09
67740;BME280;54536;50.090;14.420;2023-01-28T09:48:29;100321.56;;;5.38;54.87
67740;BME280;54536;50.090;14.420;2023-01-28T09:50:59;100323.84;;;5.45;54.12
67740;BME280;54536;50.090;14.420;2023-01-28T09:53:42;100330.38;;;5.36;53.98
67740;BME280;54536;50.090;14.420;2023-01-28T09:58:57;100336.69;;;5.32;52.98
67740;BME280;54536;50.090;14.420;2023-01-28T10:01:56;100331.47;;;5.32;54.13
67740;BME280;54536;50.090;14.420;2023-01-28T10:04:50;100334.53;;;5.40;52.96
67740;BME280;54536;50.090;14.420;2023-01-28T10:10:05;100325.38;;;5.15;53.34
67740;BME280;54536;50.090;14.420;2023-01-28T10:13:02;100331.34;;;5.18;53.89
67740;BME280;54536;50.090;14.420;2023-01-28T10:16:30;100335.66;;;5.19;53.41
67740;BME280;54536;50.090;14.420;2023-01-28T10:19:26;100339.09;;;5.19;53.21
67740;BME280;54536;50.090;14.420;2023-01-28T10:22:01;100327.91;;;5.17;52.88
67740;BME280;54536;50.090;14.420;2023-01-28T10:24:44;100331.41;;;5.16;52.44
67740;BME280;54536;50.090;14.420;2023-01-28T10:27:16;100336.63;;;5.16;52.43
67740;BME280;54536;50.090;14.420;2023-01-28T10:29:47;100337.13;;;5.07;52.97
67740;BME280;54536;50.090;14.420;2023-01-28T10:32:37;100339.56;;;5.10;53.50
67740;BME280;54536;50.090;14.420;2023-01-28T10:35:09;100344.19;;;5.05;51.60
67740;BME280;54536;50.090;14.420;2023-01-28T10:37:39;100342.34;;;5.07;52.17
67740;BME280;54536;50.090;14.420;2023-01-28T10:40:13;100343.41;;;5.03;52.16
67740;BME280;54536;50.090;14.420;2023-01-28T10:42:40;100339.81;;;4.88;52.07
67740;BME280;54536;50.090;14.420;2023-01-28T10:45:14;100351.63;;;4.78;51.68
67740;BME280;54536;50.090;14.420;2023-01-28T10:50:29;100354.97;;;4.80;51.90
67740;BME280;54536;50.090;14.420;2023-01-28T10:52:58;100356.44;;;4.68;52.27
67740;BME280;54536;50.090;14.420;2023-01-28T10:55:56;100366.63;;;4.73;51.85
67740;BME280;54536;50.090;14.420;2023-01-28T10:58:26;100361.56;;;4.69;52.12
67740;BME280;54536;50.090;14.420;2023-01-28T11:00:58;100361.25;;;4.76;52.29
67740;BME280;54536;50.090;14.420;2023-01-28T11:03:25;100363.78;;;4.77;51.33
67740;BME280;54536;50.090;14.420;2023-01-28T11:05:54;100359.63;;;4.73;50.67
67740;BME280;54536;50.090;14.420;2023-01-28T11:08:23;100365.00;;;4.70;50.68
67740;BME280;54536;50.090;14.420;2023-01-28T11:10:52;100360.78;;;4.67;50.86
67740;BME280;54536;50.090;14.420;2023-01-28T11:13:22;100365.84;;;4.70;50.50
67740;BME280;54536;50.090;14.420;2023-01-28T11:15:59;100373.78;;;4.50;51.36
67740;BME280;54536;50.090;14.420;2023-01-28T11:18:30;100369.34;;;4.52;50.79
67740;BME280;54536;50.090;14.420;2023-01-28T11:21:00;100376.19;;;4.55;51.25
67740;BME280;54536;50.090;14.420;2023-01-28T11:23:48;100373.63;;;4.53;51.33
67740;BME280;54536;50.090;14.420;2023-01-28T11:26:21;100370.84;;;4.58;53.04
67740;BME280;54536;50.090;14.420;2023-01-28T11:28:52;100370.84;;;4.58;51.90
67740;BME280;54536;50.090;14.420;2023-01-28T11:31:21;100368.97;;;4.60;51.82
67740;BME280;54536;50.090;14.420;2023-01-28T11:33:57;100366.84;;;4.68;51.61
67740;BME280;54536;50.090;14.420;2023-01-28T11:36:26;100371.59;;;4.77;51.31
67740;BME280;54536;50.090;14.420;2023-01-28T11:39:15;100373.31;;;4.78;52.94
67740;BME280;54536;50.090;14.420;2023-01-28T11:41:45;100370.16;;;4.72;53.50
67740;BME280;54536;50.090;14.420;2023-01-28T11:44:18;100369.22;;;4.73;54.25
67740;BME280;54536;50.090;14.420;2023-01-28T11:49:42;100374.13;;;4.79;52.64
67740;BME280;54536;50.090;14.420;2023-01-28T12:00:32;100375.47;;;4.87;50.69
67740;BME280;54536;50.090;14.420;2023-01-28T12:09:03;100373.91;;;4.83;49.06
67740;BME280;54536;50.090;14.420;2023-01-28T12:26:22;100373.34;;;4.77;48.59
67740;BME280;54536;50.090;14.420;2023-01-28T12:34:38;100372.56;;;4.57;49.30
67740;BME280;54536;50.090;14.420;2023-01-28T12:40:14;100381.00;;;4.62;48.79
67740;BME280;54536;50.090;14.420;2023-01-28T12:43:01;100383.53;;;4.64;49.31
67740;BME280;54536;50.090;14.420;2023-01-28T12:45:52;100385.13;;;4.49;48.46
67740;BME280;54536;50.090;14.420;2023-01-28T12:48:36;100381.78;;;4.64;49.79
67740;BME280;54536;50.090;14.420;2023-01-28T12:54:05;100390.88;;;4.56;49.15
67740;BME280;54536;50.090;14.420;2023-01-28T12:56:47;100390.94;;;4.54;49.16
67740;BME280;54536;50.090;14.420;2023-01-28T13:07:58;100381.03;;;4.43;49.93
67740;BME280;54536;50.090;14.420;2023-01-28T13:10:37;100390.13;;;4.35;48.76
67740;BME280;54536;50.090;14.420;2023-01-28T13:15:54;100388.31;;;4.37;47.84
67740;BME280;54536;50.090;14.420;2023-01-28T13:24:05;100401.72;;;4.46;48.08
67740;BME280;54536;50.090;14.420;2023-01-28T13:26:52;100391.09;;;4.51;48.15
67740;BME280;54536;50.090;14.420;2023-01-28T13:29:30;100391.25;;;4.48;48.06
67740;BME280;54536;50.090;14.420;2023-01-28T13:32:02;100397.75;;;4.39;48.47
67740;BME280;54536;50.090;14.420;2023-01-28T13:34:37;100394.50;;;4.34;47.38
67740;BME280;54536;50.090;14.420;2023-01-28T13:37:37;100411.75;;;4.37;50.00
67740;BME280;54536;50.090;14.420;2023-01-28T13:42:40;100405.59;;;4.38;48.63
67740;BME280;54536;50.090;14.420;2023-01-28T13:47:52;100407.47;;;4.17;47.00
67740;BME280;54536;50.090;14.420;2023-01-28T13:50:36;100409.00;;;4.21;47.37
67740;BME280;54536;50.090;14.420;2023-01-28T13:55:56;100414.63;;;4.12;48.05
67740;BME280;54536;50.090;14.420;2023-01-28T14:04:02;100413.78;;;4.11;50.88
67740;BME280;54536;50.090;14.420;2023-01-28T14:13:32;100429.97;;;4.18;49.01
67740;BME280;54536;50.090;14.420;2023-01-28T14:21:02;100433.56;;;4.15;48.92
67740;BME280;54536;50.090;14.420;2023-01-28T14:23:36;100440.81;;;4.09;47.36
67740;BME280;54536;50.090;14.420;2023-01-28T14:31:36;100442.97;;;3.99;46.00
67740;BME280;54536;50.090;14.420;2023-01-28T14:36:54;100457.81;;;3.97;46.86
67740;BME280;54536;50.090;14.420;2023-01-28T14:39:28;100456.13;;;3.96;46.79
67740;BME280;54536;50.090;14.420;2023-01-28T14:42:00;100462.44;;;3.90;46.67
67740;BME280;54536;50.090;14.420;2023-01-28T14:44:40;100459.75;;;3.73;46.95
67740;BME280;54536;50.090;14.420;2023-01-28T14:47:13;100455.97;;;3.80;46.01
67740;BME280;54536;50.090;14.420;2023-01-28T14:50:06;100466.97;;;3.66;46.40
67740;BME280;54536;50.090;14.420;2023-01-28T14:53:15;100464.53;;;3.62;45.88
67740;BME280;54536;50.090;14.420;2023-01-28T14:56:00;100473.53;;;3.55;45.72
67740;BME280;54536;50.090;14.420;2023-01-28T14:58:40;100476.50;;;3.66;45.48
67740;BME280;54536;50.090;14.420;2023-01-28T15:01:19;100491.94;;;3.70;47.19
67740;BME280;54536;50.090;14.420;2023-01-28T15:03:46;100495.63;;;3.65;46.83
67740;BME280;54536;50.090;14.420;2023-01-28T15:06:16;100490.88;;;3.54;45.04
67740;BME280;54536;50.090;14.420;2023-01-28T15:08:46;100487.69;;;3.68;45.82
67740;BME280;54536;50.090;14.420;2023-01-28T15:11:17;100492.63;;;3.74;45.33
67740;BME280;54536;50.090;14.420;2023-01-28T15:13:50;100499.66;;;3.72;45.53
67740;BME280;54536;50.090;14.420;2023-01-28T15:16:23;100498.72;;;3.52;46.13
67740;BME280;54536;50.090;14.420;2023-01-28T15:18:51;100500.94;;;3.62;48.09